sensor_id;sensor_type;location;lat;lon;timestamp;P1;durP1;ratioP1;P2;durP2;ratioP2
47760;SDS011;33524;55.434;38.520;2023-02-15T00:00:23;3.72;;;2.03;;
47760;SDS011;33524;55.434;38.520;2023-02-15T00:02:51;3.10;;;1.70;;
47760;SDS011;33524;55.434;38.520;2023-02-15T00:05:19;2.00;;;1.40;;
47760;SDS011;33524;55.434;38.520;2023-02-15T00:07:47;2.42;;;1.40;;
47760;SDS011;33524;55.434;38.520;2023-02-15T00:10:15;3.08;;;1.58;;
47760;SDS011;33524;55.434;38.520;2023-02-15T00:12:44;4.55;;;1.98;;
47760;SDS011;33524;55.434;38.520;2023-02-15T00:15:12;3.97;;;1.80;;
47760;SDS011;33524;55.434;38.520;2023-02-15T00:17:40;5.97;;;2.10;;
47760;SDS011;33524;55.434;38.520;2023-02-15T00:20:08;7.95;;;2.00;;
47760;SDS011;33524;55.434;38.520;2023-02-15T00:22:36;3.97;;;1.90;;
47760;SDS011;33524;55.434;38.520;2023-02-15T00:25:05;4.53;;;1.90;;
47760;SDS011;33524;55.434;38.520;2023-02-15T00:27:33;4.75;;;1.80;;
47760;SDS011;33524;55.434;38.520;2023-02-15T00:30:02;3.87;;;2.15;;
47760;SDS011;33524;55.434;38.520;2023-02-15T00:32:31;3.08;;;1.80;;
47760;SDS011;33524;55.434;38.520;2023-02-15T00:34:59;6.53;;;1.83;;
47760;SDS011;33524;55.434;38.520;2023-02-15T00:37:29;2.90;;;1.60;;
47760;SDS011;33524;55.434;38.520;2023-02-15T00:39:57;20.30;;;2.45;;
47760;SDS011;33524;55.434;38.520;2023-02-15T00:42:25;4.15;;;1.50;;
47760;SDS011;33524;55.434;38.520;2023-02-15T00:44:53;8.15;;;1.62;;
47760;SDS011;33524;55.434;38.520;2023-02-15T00:47:21;2.87;;;1.50;;
47760;SDS011;33524;55.434;38.520;2023-02-15T00:49:49;2.92;;;1.55;;
47760;SDS011;33524;55.434;38.520;2023-02-15T00:52:17;2.20;;;1.37;;
47760;SDS011;33524;55.434;38.520;2023-02-15T00:54:45;3.17;;;1.45;;
47760;SDS011;33524;55.434;38.520;2023-02-15T00:57:14;3.45;;;1.60;;
47760;SDS011;33524;55.434;38.520;2023-02-15T00:59:42;4.50;;;2.10;;
47760;SDS011;33524;55.434;38.520;2023-02-15T01:02:13;3.42;;;1.75;;
47760;SDS011;33524;55.434;38.520;2023-02-15T01:04:41;7.37;;;1.90;;
47760;SDS011;33524;55.434;38.520;2023-02-15T01:07:10;3.40;;;1.77;;
47760;SDS011;33524;55.434;38.520;2023-02-15T01:09:38;4.55;;;2.67;;
47760;SDS011;33524;55.434;38.520;2023-02-15T01:12:05;4.55;;;2.00;;
47760;SDS011;33524;55.434;38.520;2023-02-15T01:14:34;3.65;;;1.70;;
47760;SDS011;33524;55.434;38.520;2023-02-15T01:17:04;5.75;;;2.30;;
47760;SDS011;33524;55.434;38.520;2023-02-15T01:19:37;3.03;;;1.50;;
47760;SDS011;33524;55.434;38.520;2023-02-15T01:22:05;3.55;;;1.23;;
47760;SDS011;33524;55.434;38.520;2023-02-15T01:24:34;5.30;;;1.75;;
47760;SDS011;33524;55.434;38.520;2023-02-15T01:27:02;5.93;;;1.52;;
47760;SDS011;33524;55.434;38.520;2023-02-15T01:29:30;3.62;;;1.95;;
47760;SDS011;33524;55.434;38.520;2023-02-15T01:31:58;5.87;;;2.00;;
47760;SDS011;33524;55.434;38.520;2023-02-15T01:34:30;3.50;;;1.70;;
47760;SDS011;33524;55.434;38.520;2023-02-15T01:36:58;4.00;;;1.80;;
47760;SDS011;33524;55.434;38.520;2023-02-15T01:39:26;5.25;;;2.85;;
47760;SDS011;33524;55.434;38.520;2023-02-15T01:41:55;6.93;;;1.80;;
47760;SDS011;33524;55.434;38.520;2023-02-15T01:50:11;4.20;;;2.00;;
47760;SDS011;33524;55.434;38.520;2023-02-15T01:52:49;6.60;;;2.53;;
47760;SDS011;33524;55.434;38.520;2023-02-15T01:55:19;5.75;;;2.25;;
47760;SDS011;33524;55.434;38.520;2023-02-15T01:57:49;3.70;;;1.90;;
47760;SDS011;33524;55.434;38.520;2023-02-15T02:00:18;3.62;;;1.98;;
47760;SDS011;33524;55.434;38.520;2023-02-15T02:02:47;3.03;;;1.85;;
47760;SDS011;33524;55.434;38.520;2023-02-15T02:05:23;4.32;;;2.17;;
47760;SDS011;33524;55.434;38.520;2023-02-15T02:07:52;4.87;;;1.95;;
47760;SDS011;33524;55.434;38.520;2023-02-15T02:10:23;5.93;;;2.22;;
47760;SDS011;33524;55.434;38.520;2023-02-15T02:13:00;4.28;;;2.00;;
47760;SDS011;33524;55.434;38.520;2023-02-15T02:28:37;6.78;;;2.00;;
47760;SDS011;33524;55.434;38.520;2023-02-15T02:31:43;2.95;;;1.60;;
47760;SDS011;33524;55.434;38.520;2023-02-15T02:34:39;6.53;;;2.95;;
47760;SDS011;33524;55.434;38.520;2023-02-15T02:37:35;5.85;;;2.40;;
47760;SDS011;33524;55.434;38.520;2023-02-15T02:40:17;5.53;;;2.33;;
47760;SDS011;33524;55.434;38.520;2023-02-15T02:43:22;4.35;;;1.85;;
47760;SDS011;33524;55.434;38.520;2023-02-15T02:48:48;5.50;;;2.45;;
47760;SDS011;33524;55.434;38.520;2023-02-15T02:51:16;6.45;;;1.95;;
47760;SDS011;33524;55.434;38.520;2023-02-15T02:53:53;4.62;;;2.08;;
47760;SDS011;33524;55.434;38.520;2023-02-15T02:56:26;4.57;;;2.30;;
47760;SDS011;33524;55.434;38.520;2023-02-15T02:59:24;4.75;;;2.40;;
47760;SDS011;33524;55.434;38.520;2023-02-15T03:02:17;4.70;;;2.50;;
47760;SDS011;33524;55.434;38.520;2023-02-15T03:04:53;4.55;;;2.60;;
47760;SDS011;33524;55.434;38.520;2023-02-15T03:07:30;4.72;;;1.90;;
47760;SDS011;33524;55.434;38.520;2023-02-15T03:10:00;6.60;;;2.78;;
47760;SDS011;33524;55.434;38.520;2023-02-15T03:12:34;4.60;;;2.05;;
47760;SDS011;33524;55.434;38.520;2023-02-15T03:15:17;6.87;;;2.15;;
47760;SDS011;33524;55.434;38.520;2023-02-15T03:17:51;4.68;;;2.15;;
47760;SDS011;33524;55.434;38.520;2023-02-15T03:20:28;6.75;;;2.72;;
47760;SDS011;33524;55.434;38.520;2023-02-15T03:23:08;9.65;;;2.67;;
47760;SDS011;33524;55.434;38.520;2023-02-15T03:25:43;8.23;;;3.17;;
47760;SDS011;33524;55.434;38.520;2023-02-15T03:28:18;3.97;;;2.00;;
47760;SDS011;33524;55.434;38.520;2023-02-15T03:30:51;7.25;;;2.12;;
47760;SDS011;33524;55.434;38.520;2023-02-15T03:33:25;4.82;;;2.08;;
47760;SDS011;33524;55.434;38.520;2023-02-15T03:36:04;5.03;;;2.03;;
47760;SDS011;33524;55.434;38.520;2023-02-15T03:38:43;7.32;;;2.35;;
47760;SDS011;33524;55.434;38.520;2023-02-15T03:41:19;6.07;;;2.78;;
47760;SDS011;33524;55.434;38.520;2023-02-15T03:44:14;3.65;;;1.60;;
47760;SDS011;33524;55.434;38.520;2023-02-15T03:46:54;4.10;;;2.22;;
47760;SDS011;33524;55.434;38.520;2023-02-15T03:52:10;6.03;;;2.25;;
47760;SDS011;33524;55.434;38.520;2023-02-15T03:54:40;5.45;;;2.37;;
47760;SDS011;33524;55.434;38.520;2023-02-15T03:57:19;6.12;;;2.40;;
47760;SDS011;33524;55.434;38.520;2023-02-15T04:00:17;8.30;;;3.55;;
47760;SDS011;33524;55.434;38.520;2023-02-15T04:03:12;12.23;;;2.70;;
47760;SDS011;33524;55.434;38.520;2023-02-15T04:05:45;7.57;;;2.37;;
47760;SDS011;33524;55.434;38.520;2023-02-15T04:08:13;3.10;;;1.75;;
47760;SDS011;33524;55.434;38.520;2023-02-15T04:10:41;4.20;;;1.87;;
47760;SDS011;33524;55.434;38.520;2023-02-15T04:13:29;5.57;;;2.10;;
47760;SDS011;33524;55.434;38.520;2023-02-15T04:15:58;2.55;;;1.85;;
47760;SDS011;33524;55.434;38.520;2023-02-15T04:18:37;5.75;;;2.05;;
47760;SDS011;33524;55.434;38.520;2023-02-15T04:21:31;7.20;;;2.10;;
47760;SDS011;33524;55.434;38.520;2023-02-15T04:24:18;7.03;;;2.65;;
47760;SDS011;33524;55.434;38.520;2023-02-15T04:27:08;6.97;;;2.03;;
47760;SDS011;33524;55.434;38.520;2023-02-15T04:29:36;7.25;;;2.85;;
47760;SDS011;33524;55.434;38.520;2023-02-15T04:32:04;5.82;;;2.45;;
47760;SDS011;33524;55.434;38.520;2023-02-15T04:34:32;6.95;;;2.40;;
47760;SDS011;33524;55.434;38.520;2023-02-15T04:37:00;6.80;;;2.20;;
47760;SDS011;33524;55.434;38.520;2023-02-15T04:39:28;5.93;;;2.30;;
47760;SDS011;33524;55.434;38.520;2023-02-15T04:41:56;7.50;;;3.03;;
47760;SDS011;33524;55.434;38.520;2023-02-15T04:44:25;4.35;;;2.33;;
47760;SDS011;33524;55.434;38.520;2023-02-15T04:46:52;3.87;;;2.22;;
47760;SDS011;33524;55.434;38.520;2023-02-15T04:49:23;2.62;;;1.70;;
47760;SDS011;33524;55.434;38.520;2023-02-15T04:51:52;5.68;;;1.90;;
47760;SDS011;33524;55.434;38.520;2023-02-15T04:54:19;4.97;;;3.00;;
47760;SDS011;33524;55.434;38.520;2023-02-15T04:56:47;8.75;;;2.72;;
47760;SDS011;33524;55.434;38.520;2023-02-15T04:59:16;6.22;;;1.98;;
47760;SDS011;33524;55.434;38.520;2023-02-15T05:01:44;4.20;;;2.60;;
47760;SDS011;33524;55.434;38.520;2023-02-15T05:04:15;5.97;;;2.70;;
47760;SDS011;33524;55.434;38.520;2023-02-15T05:06:44;4.12;;;1.83;;
47760;SDS011;33524;55.434;38.520;2023-02-15T05:09:12;5.22;;;2.12;;
47760;SDS011;33524;55.434;38.520;2023-02-15T05:11:40;4.45;;;2.45;;
47760;SDS011;33524;55.434;38.520;2023-02-15T05:14:08;6.07;;;2.25;;
47760;SDS011;33524;55.434;38.520;2023-02-15T05:16:36;5.70;;;2.33;;
47760;SDS011;33524;55.434;38.520;2023-02-15T05:19:04;4.78;;;1.95;;
47760;SDS011;33524;55.434;38.520;2023-02-15T05:21:32;8.57;;;2.78;;
47760;SDS011;33524;55.434;38.520;2023-02-15T05:24:00;3.40;;;1.73;;
47760;SDS011;33524;55.434;38.520;2023-02-15T05:26:49;5.85;;;2.28;;
47760;SDS011;33524;55.434;38.520;2023-02-15T05:29:35;3.05;;;1.80;;
47760;SDS011;33524;55.434;38.520;2023-02-15T05:32:03;5.53;;;1.90;;
47760;SDS011;33524;55.434;38.520;2023-02-15T05:34:32;5.45;;;2.58;;
47760;SDS011;33524;55.434;38.520;2023-02-15T05:37:00;7.75;;;2.65;;
47760;SDS011;33524;55.434;38.520;2023-02-15T05:39:28;6.37;;;1.73;;
47760;SDS011;33524;55.434;38.520;2023-02-15T05:41:58;3.25;;;1.92;;
47760;SDS011;33524;55.434;38.520;2023-02-15T05:44:26;5.80;;;2.05;;
47760;SDS011;33524;55.434;38.520;2023-02-15T05:46:55;5.85;;;2.05;;
47760;SDS011;33524;55.434;38.520;2023-02-15T05:49:26;5.37;;;1.87;;
47760;SDS011;33524;55.434;38.520;2023-02-15T05:51:54;10.38;;;2.40;;
47760;SDS011;33524;55.434;38.520;2023-02-15T05:54:22;5.85;;;2.60;;
47760;SDS011;33524;55.434;38.520;2023-02-15T05:56:50;5.45;;;2.92;;
47760;SDS011;33524;55.434;38.520;2023-02-15T05:59:17;5.20;;;2.10;;
47760;SDS011;33524;55.434;38.520;2023-02-15T06:01:45;5.43;;;2.40;;
47760;SDS011;33524;55.434;38.520;2023-02-15T06:04:15;4.60;;;2.00;;
47760;SDS011;33524;55.434;38.520;2023-02-15T06:06:42;6.87;;;2.75;;
47760;SDS011;33524;55.434;38.520;2023-02-15T06:09:11;5.90;;;2.40;;
47760;SDS011;33524;55.434;38.520;2023-02-15T06:11:43;7.05;;;3.17;;
47760;SDS011;33524;55.434;38.520;2023-02-15T06:14:11;11.77;;;3.20;;
47760;SDS011;33524;55.434;38.520;2023-02-15T06:16:40;7.80;;;3.20;;
47760;SDS011;33524;55.434;38.520;2023-02-15T06:19:07;11.60;;;3.25;;
47760;SDS011;33524;55.434;38.520;2023-02-15T06:21:35;5.87;;;3.00;;
47760;SDS011;33524;55.434;38.520;2023-02-15T06:24:08;6.45;;;2.90;;
47760;SDS011;33524;55.434;38.520;2023-02-15T06:26:36;7.43;;;3.37;;
47760;SDS011;33524;55.434;38.520;2023-02-15T06:29:04;8.75;;;2.78;;
47760;SDS011;33524;55.434;38.520;2023-02-15T06:31:32;4.00;;;2.10;;
47760;SDS011;33524;55.434;38.520;2023-02-15T06:34:00;8.10;;;3.53;;
47760;SDS011;33524;55.434;38.520;2023-02-15T06:36:29;4.90;;;2.53;;
47760;SDS011;33524;55.434;38.520;2023-02-15T06:38:57;8.07;;;3.25;;
47760;SDS011;33524;55.434;38.520;2023-02-15T06:41:25;8.88;;;3.08;;
47760;SDS011;33524;55.434;38.520;2023-02-15T06:43:53;8.23;;;2.80;;
47760;SDS011;33524;55.434;38.520;2023-02-15T06:46:21;4.37;;;1.98;;
47760;SDS011;33524;55.434;38.520;2023-02-15T06:49:08;6.28;;;2.70;;
47760;SDS011;33524;55.434;38.520;2023-02-15T06:51:36;9.20;;;3.12;;
47760;SDS011;33524;55.434;38.520;2023-02-15T06:54:04;6.82;;;3.28;;
47760;SDS011;33524;55.434;38.520;2023-02-15T06:56:32;7.57;;;3.20;;
47760;SDS011;33524;55.434;38.520;2023-02-15T06:59:00;7.55;;;3.60;;
47760;SDS011;33524;55.434;38.520;2023-02-15T07:01:29;8.43;;;3.05;;
47760;SDS011;33524;55.434;38.520;2023-02-15T07:03:57;6.28;;;2.95;;
47760;SDS011;33524;55.434;38.520;2023-02-15T07:06:25;11.00;;;3.05;;
47760;SDS011;33524;55.434;38.520;2023-02-15T07:08:53;6.00;;;3.17;;
47760;SDS011;33524;55.434;38.520;2023-02-15T07:11:22;7.30;;;3.10;;
47760;SDS011;33524;55.434;38.520;2023-02-15T07:14:11;9.57;;;2.95;;
47760;SDS011;33524;55.434;38.520;2023-02-15T07:16:40;9.57;;;3.53;;
47760;SDS011;33524;55.434;38.520;2023-02-15T07:19:07;3.85;;;2.30;;
47760;SDS011;33524;55.434;38.520;2023-02-15T07:21:35;5.10;;;2.65;;
47760;SDS011;33524;55.434;38.520;2023-02-15T07:24:04;6.60;;;3.03;;
47760;SDS011;33524;55.434;38.520;2023-02-15T07:26:32;8.73;;;3.05;;
47760;SDS011;33524;55.434;38.520;2023-02-15T07:29:00;5.60;;;2.37;;
47760;SDS011;33524;55.434;38.520;2023-02-15T07:31:28;5.32;;;2.53;;
47760;SDS011;33524;55.434;38.520;2023-02-15T07:33:59;6.37;;;2.58;;
47760;SDS011;33524;55.434;38.520;2023-02-15T07:36:26;4.53;;;2.37;;
47760;SDS011;33524;55.434;38.520;2023-02-15T07:38:59;3.92;;;1.87;;
47760;SDS011;33524;55.434;38.520;2023-02-15T07:41:27;7.60;;;3.28;;
47760;SDS011;33524;55.434;38.520;2023-02-15T07:44:13;7.07;;;2.90;;
47760;SDS011;33524;55.434;38.520;2023-02-15T07:46:45;8.03;;;3.37;;
47760;SDS011;33524;55.434;38.520;2023-02-15T07:49:13;6.18;;;2.58;;
47760;SDS011;33524;55.434;38.520;2023-02-15T07:51:42;10.85;;;3.45;;
47760;SDS011;33524;55.434;38.520;2023-02-15T07:54:09;3.40;;;2.08;;
47760;SDS011;33524;55.434;38.520;2023-02-15T07:56:38;6.80;;;3.00;;
47760;SDS011;33524;55.434;38.520;2023-02-15T07:59:06;4.62;;;2.30;;
47760;SDS011;33524;55.434;38.520;2023-02-15T08:01:35;6.03;;;2.72;;
47760;SDS011;33524;55.434;38.520;2023-02-15T08:04:06;5.37;;;2.90;;
47760;SDS011;33524;55.434;38.520;2023-02-15T08:06:35;7.65;;;3.12;;
47760;SDS011;33524;55.434;38.520;2023-02-15T08:09:04;3.33;;;2.05;;
47760;SDS011;33524;55.434;38.520;2023-02-15T08:11:35;5.80;;;2.97;;
47760;SDS011;33524;55.434;38.520;2023-02-15T08:14:05;7.55;;;3.10;;
47760;SDS011;33524;55.434;38.520;2023-02-15T08:16:37;7.28;;;3.45;;
47760;SDS011;33524;55.434;38.520;2023-02-15T08:19:24;5.90;;;3.15;;
47760;SDS011;33524;55.434;38.520;2023-02-15T08:21:56;5.70;;;2.87;;
47760;SDS011;33524;55.434;38.520;2023-02-15T08:24:46;6.28;;;3.58;;
47760;SDS011;33524;55.434;38.520;2023-02-15T08:27:14;6.32;;;3.70;;
47760;SDS011;33524;55.434;38.520;2023-02-15T08:29:41;6.87;;;3.85;;
47760;SDS011;33524;55.434;38.520;2023-02-15T08:32:11;8.95;;;3.50;;
47760;SDS011;33524;55.434;38.520;2023-02-15T08:34:40;9.55;;;4.15;;
47760;SDS011;33524;55.434;38.520;2023-02-15T08:37:09;5.70;;;3.37;;
47760;SDS011;33524;55.434;38.520;2023-02-15T08:39:37;5.30;;;3.87;;
47760;SDS011;33524;55.434;38.520;2023-02-15T08:42:08;6.45;;;3.08;;
47760;SDS011;33524;55.434;38.520;2023-02-15T08:44:35;5.78;;;2.83;;
47760;SDS011;33524;55.434;38.520;2023-02-15T08:47:03;5.93;;;3.72;;
47760;SDS011;33524;55.434;38.520;2023-02-15T08:49:31;11.68;;;3.25;;
47760;SDS011;33524;55.434;38.520;2023-02-15T08:51:59;6.32;;;3.37;;
47760;SDS011;33524;55.434;38.520;2023-02-15T08:54:27;6.50;;;2.28;;
47760;SDS011;33524;55.434;38.520;2023-02-15T08:56:55;5.18;;;2.55;;
47760;SDS011;33524;55.434;38.520;2023-02-15T08:59:23;7.57;;;3.25;;
47760;SDS011;33524;55.434;38.520;2023-02-15T09:01:54;5.68;;;2.35;;
47760;SDS011;33524;55.434;38.520;2023-02-15T09:04:23;4.30;;;2.87;;
47760;SDS011;33524;55.434;38.520;2023-02-15T09:06:51;4.07;;;2.83;;
47760;SDS011;33524;55.434;38.520;2023-02-15T09:09:20;6.32;;;2.75;;
47760;SDS011;33524;55.434;38.520;2023-02-15T09:11:50;4.97;;;2.42;;
47760;SDS011;33524;55.434;38.520;2023-02-15T09:14:27;6.03;;;2.42;;
47760;SDS011;33524;55.434;38.520;2023-02-15T09:16:55;3.58;;;1.87;;
47760;SDS011;33524;55.434;38.520;2023-02-15T09:19:24;5.82;;;2.58;;
47760;SDS011;33524;55.434;38.520;2023-02-15T09:21:53;3.28;;;1.98;;
47760;SDS011;33524;55.434;38.520;2023-02-15T09:24:22;3.70;;;1.95;;
47760;SDS011;33524;55.434;38.520;2023-02-15T09:26:50;3.90;;;1.98;;
47760;SDS011;33524;55.434;38.520;2023-02-15T09:29:18;4.93;;;2.08;;
47760;SDS011;33524;55.434;38.520;2023-02-15T09:31:48;5.90;;;1.83;;
47760;SDS011;33524;55.434;38.520;2023-02-15T09:34:18;4.22;;;1.62;;
47760;SDS011;33524;55.434;38.520;2023-02-15T09:36:48;4.25;;;1.87;;
47760;SDS011;33524;55.434;38.520;2023-02-15T09:39:18;3.67;;;1.85;;
47760;SDS011;33524;55.434;38.520;2023-02-15T09:47:16;5.43;;;2.72;;
47760;SDS011;33524;55.434;38.520;2023-02-15T09:55:45;4.35;;;2.42;;
47760;SDS011;33524;55.434;38.520;2023-02-15T09:58:31;4.28;;;1.95;;
47760;SDS011;33524;55.434;38.520;2023-02-15T10:04:05;3.58;;;1.60;;
47760;SDS011;33524;55.434;38.520;2023-02-15T10:10:00;4.35;;;2.08;;
47760;SDS011;33524;55.434;38.520;2023-02-15T10:12:47;4.82;;;1.80;;
47760;SDS011;33524;55.434;38.520;2023-02-15T10:18:43;3.05;;;1.35;;
47760;SDS011;33524;55.434;38.520;2023-02-15T10:26:51;3.90;;;2.03;;
47760;SDS011;33524;55.434;38.520;2023-02-15T10:34:51;2.75;;;1.33;;
47760;SDS011;33524;55.434;38.520;2023-02-15T10:40:14;1.23;;;1.08;;
47760;SDS011;33524;55.434;38.520;2023-02-15T10:50:55;1.77;;;1.20;;
47760;SDS011;33524;55.434;38.520;2023-02-15T10:56:19;2.78;;;1.80;;
47760;SDS011;33524;55.434;38.520;2023-02-15T11:02:39;2.58;;;1.33;;
47760;SDS011;33524;55.434;38.520;2023-02-15T11:08:28;1.62;;;1.20;;
47760;SDS011;33524;55.434;38.520;2023-02-15T11:11:01;2.87;;;1.27;;
47760;SDS011;33524;55.434;38.520;2023-02-15T11:13:35;2.50;;;1.40;;
47760;SDS011;33524;55.434;38.520;2023-02-15T11:16:16;3.80;;;1.50;;
47760;SDS011;33524;55.434;38.520;2023-02-15T11:18:50;3.10;;;1.90;;
47760;SDS011;33524;55.434;38.520;2023-02-15T11:21:37;2.35;;;1.40;;
47760;SDS011;33524;55.434;38.520;2023-02-15T11:24:11;2.90;;;1.37;;
47760;SDS011;33524;55.434;38.520;2023-02-15T11:32:19;2.47;;;1.62;;
47760;SDS011;33524;55.434;38.520;2023-02-15T11:37:51;1.77;;;1.30;;
47760;SDS011;33524;55.434;38.520;2023-02-15T11:40:46;2.70;;;1.50;;
47760;SDS011;33524;55.434;38.520;2023-02-15T11:43:19;2.25;;;1.77;;
47760;SDS011;33524;55.434;38.520;2023-02-15T11:45:51;1.85;;;1.27;;
47760;SDS011;33524;55.434;38.520;2023-02-15T11:48:19;2.90;;;1.65;;
47760;SDS011;33524;55.434;38.520;2023-02-15T11:50:47;1.92;;;1.37;;
47760;SDS011;33524;55.434;38.520;2023-02-15T11:53:16;2.10;;;1.35;;
47760;SDS011;33524;55.434;38.520;2023-02-15T11:55:49;1.50;;;1.12;;
47760;SDS011;33524;55.434;38.520;2023-02-15T12:00:56;2.03;;;1.02;;
47760;SDS011;33524;55.434;38.520;2023-02-15T12:03:43;1.83;;;1.30;;
47760;SDS011;33524;55.434;38.520;2023-02-15T12:06:32;1.10;;;1.00;;
47760;SDS011;33524;55.434;38.520;2023-02-15T12:09:10;2.80;;;1.27;;
47760;SDS011;33524;55.434;38.520;2023-02-15T12:11:53;4.90;;;1.30;;
47760;SDS011;33524;55.434;38.520;2023-02-15T12:14:21;1.40;;;1.08;;
47760;SDS011;33524;55.434;38.520;2023-02-15T12:16:50;3.85;;;1.40;;
47760;SDS011;33524;55.434;38.520;2023-02-15T12:19:27;1.65;;;1.00;;
47760;SDS011;33524;55.434;38.520;2023-02-15T12:21:56;1.90;;;1.15;;
47760;SDS011;33524;55.434;38.520;2023-02-15T12:24:28;2.95;;;1.55;;
47760;SDS011;33524;55.434;38.520;2023-02-15T12:27:18;2.35;;;1.37;;
47760;SDS011;33524;55.434;38.520;2023-02-15T12:30:00;2.85;;;1.40;;
47760;SDS011;33524;55.434;38.520;2023-02-15T12:32:35;2.20;;;1.20;;
47760;SDS011;33524;55.434;38.520;2023-02-15T12:35:20;1.98;;;1.23;;
47760;SDS011;33524;55.434;38.520;2023-02-15T12:40:32;1.65;;;1.20;;
47760;SDS011;33524;55.434;38.520;2023-02-15T12:43:04;1.67;;;1.30;;
47760;SDS011;33524;55.434;38.520;2023-02-15T12:45:41;2.05;;;1.10;;
47760;SDS011;33524;55.434;38.520;2023-02-15T12:50:40;1.73;;;1.50;;
47760;SDS011;33524;55.434;38.520;2023-02-15T12:56:01;3.00;;;1.50;;
47760;SDS011;33524;55.434;38.520;2023-02-15T12:58:35;1.98;;;1.30;;
47760;SDS011;33524;55.434;38.520;2023-02-15T13:01:18;2.42;;;1.80;;
47760;SDS011;33524;55.434;38.520;2023-02-15T13:04:00;2.40;;;1.65;;
47760;SDS011;33524;55.434;38.520;2023-02-15T13:06:33;2.00;;;1.30;;
47760;SDS011;33524;55.434;38.520;2023-02-15T13:09:14;2.53;;;1.48;;
47760;SDS011;33524;55.434;38.520;2023-02-15T13:11:45;2.12;;;1.50;;
47760;SDS011;33524;55.434;38.520;2023-02-15T13:14:20;3.17;;;1.75;;
47760;SDS011;33524;55.434;38.520;2023-02-15T13:16:53;1.58;;;1.12;;
47760;SDS011;33524;55.434;38.520;2023-02-15T13:19:29;4.35;;;1.58;;
47760;SDS011;33524;55.434;38.520;2023-02-15T13:22:02;1.98;;;1.40;;
47760;SDS011;33524;55.434;38.520;2023-02-15T13:24:37;3.25;;;1.52;;
47760;SDS011;33524;55.434;38.520;2023-02-15T13:27:10;1.95;;;1.50;;
47760;SDS011;33524;55.434;38.520;2023-02-15T13:29:44;2.97;;;1.80;;
47760;SDS011;33524;55.434;38.520;2023-02-15T13:32:32;3.05;;;1.98;;
47760;SDS011;33524;55.434;38.520;2023-02-15T13:35:05;2.72;;;1.80;;
47760;SDS011;33524;55.434;38.520;2023-02-15T13:40:25;1.48;;;1.20;;
47760;SDS011;33524;55.434;38.520;2023-02-15T13:43:12;2.67;;;1.87;;
47760;SDS011;33524;55.434;38.520;2023-02-15T13:45:56;3.12;;;2.22;;
47760;SDS011;33524;55.434;38.520;2023-02-15T13:51:26;5.78;;;2.83;;
47760;SDS011;33524;55.434;38.520;2023-02-15T13:54:14;3.78;;;2.30;;
47760;SDS011;33524;55.434;38.520;2023-02-15T14:07:56;4.03;;;1.77;;
47760;SDS011;33524;55.434;38.520;2023-02-15T14:11:19;5.25;;;4.12;;
47760;SDS011;33524;55.434;38.520;2023-02-15T14:22:22;2.37;;;1.80;;
47760;SDS011;33524;55.434;38.520;2023-02-15T14:30:25;2.22;;;1.40;;
47760;SDS011;33524;55.434;38.520;2023-02-15T14:33:07;2.17;;;1.50;;
47760;SDS011;33524;55.434;38.520;2023-02-15T14:35:52;3.47;;;2.33;;
47760;SDS011;33524;55.434;38.520;2023-02-15T14:41:02;2.22;;;1.65;;
47760;SDS011;33524;55.434;38.520;2023-02-15T14:46:16;3.10;;;1.90;;
47760;SDS011;33524;55.434;38.520;2023-02-15T14:48:56;2.62;;;1.83;;
47760;SDS011;33524;55.434;38.520;2023-02-15T15:02:13;3.15;;;1.90;;
47760;SDS011;33524;55.434;38.520;2023-02-15T15:04:55;3.12;;;1.70;;
47760;SDS011;33524;55.434;38.520;2023-02-15T15:07:27;3.12;;;2.20;;
47760;SDS011;33524;55.434;38.520;2023-02-15T15:12:45;2.92;;;1.80;;
47760;SDS011;33524;55.434;38.520;2023-02-15T15:15:32;8.88;;;2.17;;
47760;SDS011;33524;55.434;38.520;2023-02-15T15:18:42;5.57;;;2.03;;
47760;SDS011;33524;55.434;38.520;2023-02-15T15:24:50;2.90;;;2.40;;
47760;SDS011;33524;55.434;38.520;2023-02-15T15:32:42;3.60;;;2.80;;
47760;SDS011;33524;55.434;38.520;2023-02-15T15:50:46;2.70;;;1.98;;
47760;SDS011;33524;55.434;38.520;2023-02-15T15:53:20;3.37;;;2.28;;
47760;SDS011;33524;55.434;38.520;2023-02-15T15:55:50;3.67;;;2.15;;
47760;SDS011;33524;55.434;38.520;2023-02-15T16:00:54;3.05;;;2.40;;
47760;SDS011;33524;55.434;38.520;2023-02-15T16:03:27;3.08;;;2.33;;
47760;SDS011;33524;55.434;38.520;2023-02-15T16:05:56;4.15;;;2.75;;
47760;SDS011;33524;55.434;38.520;2023-02-15T16:08:32;4.68;;;2.90;;
47760;SDS011;33524;55.434;38.520;2023-02-15T16:13:52;3.37;;;2.70;;
47760;SDS011;33524;55.434;38.520;2023-02-15T16:16:26;4.10;;;2.70;;
47760;SDS011;33524;55.434;38.520;2023-02-15T16:18:58;2.65;;;1.70;;
47760;SDS011;33524;55.434;38.520;2023-02-15T16:21:27;2.58;;;2.17;;
47760;SDS011;33524;55.434;38.520;2023-02-15T16:24:03;3.25;;;2.92;;
47760;SDS011;33524;55.434;38.520;2023-02-15T16:26:48;6.03;;;2.30;;
47760;SDS011;33524;55.434;38.520;2023-02-15T16:29:35;2.42;;;1.92;;
47760;SDS011;33524;55.434;38.520;2023-02-15T16:32:04;4.93;;;1.80;;
47760;SDS011;33524;55.434;38.520;2023-02-15T16:37:21;2.17;;;1.75;;
47760;SDS011;33524;55.434;38.520;2023-02-15T16:42:22;3.20;;;1.90;;
47760;SDS011;33524;55.434;38.520;2023-02-15T16:45:12;3.30;;;1.73;;
47760;SDS011;33524;55.434;38.520;2023-02-15T16:47:46;2.62;;;1.65;;
47760;SDS011;33524;55.434;38.520;2023-02-15T16:50:19;2.22;;;1.52;;
47760;SDS011;33524;55.434;38.520;2023-02-15T16:52:50;1.67;;;1.52;;
47760;SDS011;33524;55.434;38.520;2023-02-15T16:55:24;3.20;;;1.87;;
47760;SDS011;33524;55.434;38.520;2023-02-15T16:57:56;6.25;;;2.10;;
47760;SDS011;33524;55.434;38.520;2023-02-15T17:00:30;2.03;;;1.42;;
47760;SDS011;33524;55.434;38.520;2023-02-15T17:03:06;4.45;;;1.83;;
47760;SDS011;33524;55.434;38.520;2023-02-15T17:05:51;2.53;;;1.85;;
47760;SDS011;33524;55.434;38.520;2023-02-15T17:13:27;3.10;;;1.80;;
47760;SDS011;33524;55.434;38.520;2023-02-15T17:18:28;2.53;;;1.50;;
47760;SDS011;33524;55.434;38.520;2023-02-15T17:21:13;2.50;;;1.40;;
47760;SDS011;33524;55.434;38.520;2023-02-15T17:23:47;2.17;;;1.40;;
47760;SDS011;33524;55.434;38.520;2023-02-15T17:26:21;3.00;;;1.90;;
47760;SDS011;33524;55.434;38.520;2023-02-15T17:32:01;2.87;;;1.80;;
47760;SDS011;33524;55.434;38.520;2023-02-15T17:37:23;2.22;;;1.65;;
47760;SDS011;33524;55.434;38.520;2023-02-15T17:39:54;2.50;;;1.70;;
47760;SDS011;33524;55.434;38.520;2023-02-15T17:42:40;1.95;;;1.58;;
47760;SDS011;33524;55.434;38.520;2023-02-15T17:45:08;2.97;;;1.73;;
47760;SDS011;33524;55.434;38.520;2023-02-15T17:47:39;1.52;;;1.42;;
47760;SDS011;33524;55.434;38.520;2023-02-15T17:50:10;2.22;;;1.60;;
47760;SDS011;33524;55.434;38.520;2023-02-15T17:52:46;2.92;;;1.80;;
47760;SDS011;33524;55.434;38.520;2023-02-15T17:55:15;4.30;;;1.80;;
47760;SDS011;33524;55.434;38.520;2023-02-15T17:58:04;3.53;;;1.90;;
47760;SDS011;33524;55.434;38.520;2023-02-15T18:00:39;2.53;;;1.70;;
47760;SDS011;33524;55.434;38.520;2023-02-15T18:03:50;3.30;;;1.90;;
47760;SDS011;33524;55.434;38.520;2023-02-15T18:06:55;2.70;;;1.98;;
47760;SDS011;33524;55.434;38.520;2023-02-15T18:09:42;2.35;;;1.58;;
47760;SDS011;33524;55.434;38.520;2023-02-15T18:12:30;2.30;;;2.00;;
47760;SDS011;33524;55.434;38.520;2023-02-15T18:15:00;2.95;;;1.73;;
47760;SDS011;33524;55.434;38.520;2023-02-15T18:17:32;2.60;;;1.70;;
47760;SDS011;33524;55.434;38.520;2023-02-15T18:20:17;2.03;;;1.50;;
47760;SDS011;33524;55.434;38.520;2023-02-15T18:22:45;2.40;;;1.60;;
47760;SDS011;33524;55.434;38.520;2023-02-15T18:25:15;3.83;;;2.10;;